RJFR/KKJ METAR and TAF weather

Enter ICAO airport designator
Station Type Date Time Source
RJFR METAR 2019/10/18 10:40 UTC NOAA

RJFR 181040Z 03012KT 9999 -SHRA FEW005 BKN010 BKN020 20/19 Q1014 RMK 1ST005 5CU010 7CU020 A2997


Station Type Date Time Source
RJFR Decoded METAR 2019/10/18 10:40 UTC NOAA

Kitakyushu Airport, Japan (RJFR) 33-50N 130-57E 6M
Oct 18, 2019 - 06:40 AM EDT / 2019.10.18 1040 UTC
Wind: from the NNE (030 degrees) at 14 MPH (12 KT):0
Visibility: greater than 7 mile(s):0
Sky conditions: mostly cloudy
Weather: light rain showers
Temperature: 68 F (20 C)
Dew Point: 66 F (19 C)
Relative Humidity: 93%
Pressure (altimeter): 29.94 in. Hg (1014 hPa)
ob: RJFR 181040Z 03012KT 9999 -SHRA FEW005 BKN010 BKN020 20/19 Q1014 RMK 1ST005 5CU010 7CU020 A2997
cycle: 10

Station Type Date Time Source
RJFR TAF 2019/10/18 06:30 UTC NOAA

TAF RJFR 180507Z 1806/1912 04011KT 7000 -SHRA FEW005 SCT010 BKN015
TEMPO 1806/1812 3000 SHRA BR FEW005 BKN008 BKN010
TEMPO 1812/1815 4000 -SHRA BR
BECMG 1818/1821 33008KT

Example: see airport list